createdAt,value
2017-11-22T00:00:12.725Z,0
2017-11-22T00:01:14.603Z,0
2017-11-22T00:02:16.484Z,0
2017-11-22T00:03:30.689Z,0
2017-11-22T00:04:32.566Z,0
2017-11-22T00:05:34.447Z,0
2017-11-22T00:06:36.325Z,0
2017-11-22T00:07:38.148Z,0
2017-11-22T00:08:39.967Z,0
2017-11-22T00:09:41.855Z,0
2017-11-22T00:10:43.735Z,0
2017-11-22T00:11:45.617Z,0
2017-11-22T00:12:59.769Z,0
2017-11-22T00:14:01.649Z,0
2017-11-22T00:15:03.540Z,0
2017-11-22T00:16:05.412Z,0
2017-11-22T00:17:07.233Z,0
2017-11-22T00:18:09.051Z,0
2017-11-22T00:19:10.928Z,0
2017-11-22T00:20:12.809Z,0
2017-11-22T00:21:14.692Z,0
2017-11-22T00:22:28.844Z,0
2017-11-22T00:23:30.727Z,0
2017-11-22T00:24:32.610Z,0
2017-11-22T00:25:34.488Z,0
2017-11-22T00:26:36.310Z,0
2017-11-22T00:27:38.130Z,0
2017-11-22T00:28:40.010Z,0
2017-11-22T00:29:41.889Z,0
2017-11-22T00:30:43.770Z,0
2017-11-22T00:31:57.929Z,0
2017-11-22T00:32:59.806Z,0
2017-11-22T00:34:01.689Z,0
2017-11-22T00:35:03.567Z,0
2017-11-22T00:36:05.386Z,0
2017-11-22T00:37:07.208Z,0
2017-11-22T00:38:09.088Z,0
2017-11-22T00:39:10.965Z,0
2017-11-22T00:40:12.850Z,0
2017-11-22T00:41:27.034Z,0
2017-11-22T00:42:28.850Z,0
2017-11-22T00:43:30.667Z,0
2017-11-22T00:44:32.487Z,0
2017-11-22T00:45:34.326Z,0
2017-11-22T00:46:36.206Z,0
2017-11-22T00:47:38.086Z,0
2017-11-22T00:48:39.916Z,0
2017-11-22T00:49:41.734Z,0
2017-11-22T00:50:55.893Z,0
2017-11-22T00:51:57.771Z,0
2017-11-22T00:52:59.651Z,0
2017-11-22T00:54:01.530Z,0
2017-11-22T00:55:03.353Z,0
2017-11-22T00:56:05.171Z,0
2017-11-22T00:57:07.050Z,0
2017-11-22T00:58:08.929Z,0
2017-11-22T00:59:10.809Z,0
2017-11-22T01:00:24.963Z,0
2017-11-22T01:01:26.841Z,0
2017-11-22T01:02:28.721Z,0
2017-11-22T01:03:30.613Z,0
2017-11-22T01:04:32.433Z,0
2017-11-22T01:05:34.251Z,0
2017-11-22T01:06:36.126Z,0
2017-11-22T01:07:38.005Z,0
2017-11-22T01:08:39.887Z,0
2017-11-22T01:09:54.093Z,0
2017-11-22T01:10:55.971Z,0
2017-11-22T01:11:57.851Z,0
2017-11-22T01:12:59.729Z,0
2017-11-22T01:14:01.574Z,0
2017-11-22T01:15:03.376Z,0
2017-11-22T01:16:05.214Z,0
2017-11-22T01:17:07.070Z,0
2017-11-22T01:18:08.889Z,0
2017-11-22T01:19:23.043Z,0
2017-11-22T01:20:24.922Z,0
2017-11-22T01:21:26.804Z,0
2017-11-22T01:22:28.683Z,0
2017-11-22T01:23:30.503Z,0
2017-11-22T01:24:32.326Z,0
2017-11-22T01:25:34.210Z,0
2017-11-22T01:26:36.082Z,0
2017-11-22T01:27:37.964Z,0
2017-11-22T01:28:52.118Z,0
2017-11-22T01:29:53.995Z,0
2017-11-22T01:30:55.875Z,0
2017-11-22T01:31:57.752Z,0
2017-11-22T01:32:59.572Z,0
2017-11-22T01:34:01.390Z,0
2017-11-22T01:35:03.270Z,0
2017-11-22T01:36:05.152Z,0
2017-11-22T01:37:07.033Z,0
2017-11-22T01:38:21.187Z,0
2017-11-22T01:39:23.067Z,0
2017-11-22T01:40:24.950Z,0
2017-11-22T01:41:26.830Z,0
2017-11-22T01:42:28.650Z,0
2017-11-22T01:43:30.474Z,0
2017-11-22T01:44:32.346Z,0
2017-11-22T01:45:34.231Z,0
2017-11-22T01:46:36.165Z,0
2017-11-22T01:47:50.307Z,0
2017-11-22T01:48:52.191Z,0
2017-11-22T01:49:54.069Z,0
2017-11-22T01:50:55.948Z,0
2017-11-22T01:51:57.767Z,0
2017-11-22T01:52:59.586Z,0
2017-11-22T01:54:01.465Z,0
2017-11-22T01:55:03.343Z,0
2017-11-22T01:56:05.223Z,0
2017-11-22T01:57:19.378Z,0
2017-11-22T01:58:21.254Z,0
2017-11-22T01:59:23.137Z,0
2017-11-22T02:00:25.014Z,0
2017-11-22T02:01:26.833Z,0
2017-11-22T02:02:28.652Z,0
2017-11-22T02:03:30.533Z,0
2017-11-22T02:04:32.420Z,0
2017-11-22T02:05:34.298Z,0
2017-11-22T02:06:48.452Z,0
2017-11-22T02:07:50.331Z,0
2017-11-22T02:08:52.213Z,0
2017-11-22T02:09:54.091Z,0
2017-11-22T02:10:55.914Z,0
2017-11-22T02:11:57.734Z,0
2017-11-22T02:12:59.610Z,0
2017-11-22T02:14:01.490Z,0
2017-11-22T02:15:03.371Z,0
2017-11-22T02:16:17.526Z,0
2017-11-22T02:17:19.404Z,0
2017-11-22T02:18:21.285Z,0
2017-11-22T02:19:23.168Z,0
2017-11-22T02:20:24.987Z,0
2017-11-22T02:21:33.075Z,0
2017-11-22T02:22:34.951Z,0
2017-11-22T02:23:36.824Z,0
2017-11-22T02:24:38.698Z,0
2017-11-22T02:25:52.898Z,0
2017-11-22T02:26:54.774Z,0
2017-11-22T02:27:56.651Z,0
2017-11-22T02:28:58.525Z,0
2017-11-22T02:30:00.344Z,0
2017-11-22T02:31:02.157Z,0
2017-11-22T02:32:04.029Z,0
2017-11-22T02:33:05.903Z,0
2017-11-22T02:34:07.778Z,0
2017-11-22T02:35:21.926Z,0
2017-11-22T02:36:23.801Z,0
2017-11-22T02:37:25.677Z,0
2017-11-22T02:38:27.552Z,0
2017-11-22T02:39:29.368Z,0
2017-11-22T02:40:31.181Z,0
2017-11-22T02:41:33.055Z,0
2017-11-22T02:42:34.932Z,0
2017-11-22T02:43:36.807Z,0
2017-11-22T02:44:50.956Z,0
2017-11-22T02:45:52.835Z,0
2017-11-22T02:46:54.712Z,0
2017-11-22T02:47:56.589Z,0
2017-11-22T02:48:58.404Z,0
2017-11-22T02:50:00.217Z,0
2017-11-22T02:51:02.031Z,0
2017-11-22T02:52:03.847Z,0
2017-11-22T02:53:05.664Z,0
2017-11-22T02:54:19.811Z,0
2017-11-22T02:55:21.688Z,0
2017-11-22T02:56:23.568Z,0
2017-11-22T02:57:25.451Z,0
2017-11-22T02:58:27.262Z,0
2017-11-22T02:59:29.075Z,0
2017-11-22T03:00:30.948Z,0
2017-11-22T03:01:32.831Z,0
2017-11-22T03:02:34.707Z,0
2017-11-22T03:03:48.850Z,0
2017-11-22T03:04:50.730Z,0
2017-11-22T03:05:52.606Z,0
2017-11-22T03:06:54.479Z,0
2017-11-22T03:07:56.299Z,0
2017-11-22T03:08:58.111Z,0
2017-11-22T03:09:59.987Z,0
2017-11-22T03:11:01.858Z,0
2017-11-22T03:12:03.734Z,0
2017-11-22T03:13:17.881Z,0
2017-11-22T03:14:19.761Z,0
2017-11-22T03:15:21.634Z,0
2017-11-22T03:16:23.510Z,0
2017-11-22T03:17:25.327Z,0
2017-11-22T03:18:27.145Z,0
2017-11-22T03:19:29.013Z,0
2017-11-22T03:20:30.887Z,0
2017-11-22T03:21:32.765Z,0
2017-11-22T03:22:46.913Z,0
2017-11-22T03:23:48.788Z,0
2017-11-22T03:24:50.665Z,0
2017-11-22T03:25:52.539Z,0
2017-11-22T03:26:54.355Z,0
2017-11-22T03:27:56.170Z,0
2017-11-22T03:28:58.046Z,0
2017-11-22T03:29:59.926Z,0
2017-11-22T03:31:01.798Z,0
2017-11-22T03:32:15.994Z,0
2017-11-22T03:33:17.873Z,0
2017-11-22T03:34:19.756Z,0
2017-11-22T03:35:21.634Z,0
2017-11-22T03:36:23.453Z,0
2017-11-22T03:37:25.270Z,0
2017-11-22T03:38:27.149Z,0
2017-11-22T03:39:29.033Z,0
2017-11-22T03:40:30.907Z,0
2017-11-22T03:41:45.055Z,0
2017-11-22T03:42:46.936Z,0
2017-11-22T03:43:48.816Z,0
2017-11-22T03:44:50.696Z,0
2017-11-22T03:45:52.513Z,0
2017-11-22T03:46:54.324Z,0
2017-11-22T03:47:56.201Z,0
2017-11-22T03:48:58.078Z,0
2017-11-22T03:49:59.956Z,0
2017-11-22T03:51:14.104Z,0
2017-11-22T03:52:15.982Z,0
2017-11-22T03:53:17.858Z,0
2017-11-22T03:54:19.737Z,0
2017-11-22T03:55:21.554Z,0
2017-11-22T03:56:23.368Z,0
2017-11-22T03:57:25.244Z,0
2017-11-22T03:58:27.117Z,0
2017-11-22T03:59:28.990Z,0
2017-11-22T04:00:43.140Z,0
2017-11-22T04:01:45.017Z,0
2017-11-22T04:02:46.893Z,0
2017-11-22T04:03:48.769Z,0
2017-11-22T04:04:50.584Z,0
2017-11-22T04:05:52.399Z,0
2017-11-22T04:06:54.273Z,0
2017-11-22T04:07:56.146Z,0
2017-11-22T04:08:58.022Z,0
2017-11-22T04:10:12.176Z,0
2017-11-22T04:11:14.054Z,0
2017-11-22T04:12:15.934Z,0
2017-11-22T04:13:17.813Z,0
2017-11-22T04:14:19.627Z,0
2017-11-22T04:15:21.443Z,0
2017-11-22T04:16:23.315Z,0
2017-11-22T04:17:25.190Z,0
2017-11-22T04:18:27.067Z,0
2017-11-22T04:19:41.220Z,0
2017-11-22T04:20:43.091Z,0
2017-11-22T04:21:44.967Z,0
2017-11-22T04:22:46.843Z,0
2017-11-22T04:23:48.660Z,0
2017-11-22T04:24:50.476Z,0
2017-11-22T04:25:52.352Z,0
2017-11-22T04:26:54.227Z,0
2017-11-22T04:27:56.103Z,0
2017-11-22T04:29:10.252Z,0
2017-11-22T04:30:12.128Z,0
2017-11-22T04:31:14.012Z,0
2017-11-22T04:32:15.879Z,0
2017-11-22T04:33:17.698Z,0
2017-11-22T04:34:19.511Z,0
2017-11-22T04:35:21.385Z,0
2017-11-22T04:36:23.258Z,0
2017-11-22T04:37:25.136Z,0
2017-11-22T04:38:39.284Z,0
2017-11-22T04:39:41.163Z,0
2017-11-22T04:40:43.042Z,0
2017-11-22T04:41:44.918Z,0
2017-11-22T04:42:46.738Z,0
2017-11-22T04:43:48.549Z,0
2017-11-22T04:44:50.430Z,0
2017-11-22T04:45:52.301Z,0
2017-11-22T04:46:54.176Z,0
2017-11-22T04:48:08.325Z,0
2017-11-22T04:49:10.205Z,0
2017-11-22T04:50:12.083Z,0
2017-11-22T04:51:13.961Z,0
2017-11-22T04:52:15.777Z,0
2017-11-22T04:53:17.592Z,0
2017-11-22T04:54:19.466Z,0
2017-11-22T04:55:21.345Z,0
2017-11-22T04:56:23.221Z,0
2017-11-22T04:57:37.370Z,0
2017-11-22T04:58:39.249Z,0
2017-11-22T04:59:41.127Z,0
2017-11-22T05:00:43.002Z,0
2017-11-22T05:01:44.817Z,0
2017-11-22T05:02:46.632Z,0
2017-11-22T05:03:48.506Z,0
2017-11-22T05:04:50.385Z,0
2017-11-22T05:05:52.261Z,0
2017-11-22T05:07:06.410Z,0
2017-11-22T05:08:08.290Z,0
2017-11-22T05:09:10.169Z,0
2017-11-22T05:10:12.049Z,0
2017-11-22T05:11:13.865Z,0
2017-11-22T05:12:15.679Z,0
2017-11-22T05:13:17.555Z,0
2017-11-22T05:14:19.431Z,0
2017-11-22T05:15:21.313Z,0
2017-11-22T05:16:35.462Z,0
2017-11-22T05:17:37.342Z,0
2017-11-22T05:18:39.227Z,0
2017-11-22T05:19:41.124Z,0
2017-11-22T05:20:42.929Z,0
2017-11-22T05:21:44.739Z,0
2017-11-22T05:22:46.623Z,0
2017-11-22T05:23:48.499Z,0
2017-11-22T05:24:50.381Z,0
2017-11-22T05:26:04.529Z,0
2017-11-22T05:27:06.410Z,0
2017-11-22T05:28:08.291Z,0
2017-11-22T05:29:10.170Z,0
2017-11-22T05:30:11.986Z,0
2017-11-22T05:31:13.802Z,0
2017-11-22T05:32:15.704Z,0
2017-11-22T05:33:17.582Z,0
2017-11-22T05:34:19.469Z,0
2017-11-22T05:35:33.617Z,0
2017-11-22T05:36:35.498Z,0
2017-11-22T05:37:37.379Z,0
2017-11-22T05:38:39.260Z,0
2017-11-22T05:39:41.077Z,0
2017-11-22T05:40:42.893Z,0
2017-11-22T05:41:44.771Z,0
2017-11-22T05:42:46.650Z,0
2017-11-22T05:43:48.531Z,0
2017-11-22T05:45:02.682Z,0
2017-11-22T05:46:04.564Z,0
2017-11-22T05:47:06.446Z,0
2017-11-22T05:48:08.325Z,0
2017-11-22T05:49:10.143Z,0
2017-11-22T05:50:11.959Z,0
2017-11-22T05:51:13.837Z,0
2017-11-22T05:52:15.720Z,0
2017-11-22T05:53:17.600Z,0
2017-11-22T05:54:31.746Z,0
2017-11-22T05:55:33.626Z,0
2017-11-22T05:56:35.508Z,0
2017-11-22T05:57:37.387Z,0
2017-11-22T05:58:39.205Z,0
2017-11-22T05:59:41.019Z,0
2017-11-22T06:00:42.899Z,0
2017-11-22T06:01:44.777Z,0
2017-11-22T06:02:46.655Z,0
2017-11-22T06:04:00.804Z,0
2017-11-22T06:05:02.689Z,0
2017-11-22T06:06:04.574Z,0
2017-11-22T06:07:06.452Z,4
2017-11-22T06:08:08.269Z,4
2017-11-22T06:09:10.086Z,0
2017-11-22T06:10:11.964Z,4
2017-11-22T06:11:13.842Z,8
2017-11-22T06:12:15.724Z,4
2017-11-22T06:13:29.926Z,8
2017-11-22T06:14:31.806Z,8
2017-11-22T06:15:33.709Z,12
2017-11-22T06:16:35.583Z,8
2017-11-22T06:17:37.391Z,12
2017-11-22T06:18:39.207Z,16
2017-11-22T06:19:41.084Z,20
2017-11-22T06:20:42.969Z,20
2017-11-22T06:21:44.844Z,24
2017-11-22T06:22:58.974Z,20
2017-11-22T06:24:00.795Z,24
2017-11-22T06:25:02.609Z,24
2017-11-22T06:26:04.427Z,24
2017-11-22T06:27:06.308Z,28
2017-11-22T06:28:08.184Z,28
2017-11-22T06:29:10.036Z,36
2017-11-22T06:30:11.852Z,36
2017-11-22T06:31:13.669Z,40
2017-11-22T06:32:27.881Z,48
2017-11-22T06:33:29.761Z,48
2017-11-22T06:34:31.639Z,56
2017-11-22T06:35:33.522Z,64
2017-11-22T06:36:35.338Z,68
2017-11-22T06:37:37.157Z,72
2017-11-22T06:38:39.029Z,72
2017-11-22T06:39:40.905Z,84
2017-11-22T06:40:42.782Z,92
2017-11-22T06:41:56.934Z,136
2017-11-22T06:42:58.814Z,184
2017-11-22T06:44:00.697Z,228
2017-11-22T06:45:02.593Z,288
2017-11-22T06:46:04.398Z,332
2017-11-22T06:47:06.215Z,368
2017-11-22T06:48:08.095Z,408
2017-11-22T06:49:09.973Z,400
2017-11-22T06:50:11.856Z,412
2017-11-22T06:51:26.008Z,500
2017-11-22T06:52:27.889Z,584
2017-11-22T06:53:29.774Z,652
2017-11-22T06:54:31.653Z,712
2017-11-22T06:55:33.473Z,736
2017-11-22T06:56:35.288Z,744
2017-11-22T06:57:37.169Z,752
2017-11-22T06:58:39.050Z,796
2017-11-22T06:59:40.936Z,868
2017-11-22T07:00:55.083Z,960
2017-11-22T07:01:56.967Z,1040
2017-11-22T07:02:58.850Z,1108
2017-11-22T07:04:00.741Z,1156
2017-11-22T07:05:02.553Z,1224
2017-11-22T07:06:04.373Z,1264
2017-11-22T07:07:06.250Z,1284
2017-11-22T07:08:08.127Z,1308
2017-11-22T07:09:10.012Z,1360
2017-11-22T07:10:24.164Z,1416
2017-11-22T07:11:26.048Z,1448
2017-11-22T07:12:27.931Z,1472
2017-11-22T07:13:29.811Z,1500
2017-11-22T07:14:31.630Z,1540
2017-11-22T07:15:33.452Z,1572
2017-11-22T07:16:35.328Z,1608
2017-11-22T07:17:37.209Z,1648
2017-11-22T07:18:39.093Z,1712
2017-11-22T07:19:53.245Z,1800
2017-11-22T07:20:55.127Z,1848
2017-11-22T07:21:57.009Z,1828
2017-11-22T07:22:58.891Z,1836
2017-11-22T07:24:00.711Z,1864
2017-11-22T07:25:02.528Z,1888
2017-11-22T07:26:04.409Z,1908
2017-11-22T07:27:06.288Z,1932
2017-11-22T07:28:08.170Z,1968
2017-11-22T07:29:22.326Z,1996
2017-11-22T07:30:24.210Z,2080
2017-11-22T07:31:26.099Z,2192
2017-11-22T07:32:27.979Z,2268
2017-11-22T07:33:29.803Z,2300
2017-11-22T07:34:31.621Z,2344
2017-11-22T07:35:33.502Z,2408
2017-11-22T07:36:35.386Z,2440
2017-11-22T07:37:37.272Z,2484
2017-11-22T07:38:51.428Z,2532
2017-11-22T07:39:53.312Z,2584
2017-11-22T07:40:55.199Z,2644
2017-11-22T07:41:57.085Z,2712
2017-11-22T07:42:58.907Z,2776
2017-11-22T07:44:00.727Z,2820
2017-11-22T07:45:02.608Z,2840
2017-11-22T07:46:04.492Z,2908
2017-11-22T07:47:06.376Z,2992
2017-11-22T07:48:20.532Z,3048
2017-11-22T07:49:22.418Z,3024
2017-11-22T07:50:24.301Z,3056
2017-11-22T07:51:26.187Z,3056
2017-11-22T07:52:28.010Z,3056
2017-11-22T07:53:29.827Z,3072
2017-11-22T07:54:31.710Z,3088
2017-11-22T07:55:33.597Z,3104
2017-11-22T07:56:35.477Z,3296
2017-11-22T07:57:49.682Z,3516
2017-11-22T07:58:51.567Z,3608
2017-11-22T07:59:53.449Z,3572
2017-11-22T08:00:55.333Z,3516
2017-11-22T08:01:57.157Z,3608
2017-11-22T08:02:58.977Z,3748
2017-11-22T08:04:00.859Z,3924
2017-11-22T08:05:02.744Z,3980
2017-11-22T08:06:04.630Z,4036
2017-11-22T08:07:18.783Z,4128
2017-11-22T08:08:20.670Z,4272
2017-11-22T08:09:22.553Z,4340
2017-11-22T08:10:24.438Z,4340
2017-11-22T08:11:26.260Z,4276
2017-11-22T08:12:28.078Z,4196
2017-11-22T08:13:29.975Z,3928
2017-11-22T08:14:31.856Z,3660
2017-11-22T08:15:33.749Z,3456
2017-11-22T08:16:47.913Z,3376
2017-11-22T08:17:49.790Z,3392
2017-11-22T08:18:51.672Z,3448
2017-11-22T08:19:53.557Z,3448
2017-11-22T08:20:55.380Z,3384
2017-11-22T08:21:57.199Z,3244
2017-11-22T08:22:59.080Z,3140
2017-11-22T08:24:00.980Z,3092
2017-11-22T08:25:02.855Z,3108
2017-11-22T08:26:17.061Z,3196
2017-11-22T08:27:18.947Z,3124
2017-11-22T08:28:20.831Z,3052
2017-11-22T08:29:22.715Z,3020
2017-11-22T08:30:24.547Z,3024
2017-11-22T08:31:26.361Z,3036
2017-11-22T08:32:28.243Z,3116
2017-11-22T08:33:30.127Z,3196
2017-11-22T08:34:32.010Z,3268
2017-11-22T08:35:46.169Z,3380
2017-11-22T08:36:48.048Z,3504
2017-11-22T08:37:49.933Z,3600
2017-11-22T08:38:51.816Z,3652
2017-11-22T08:39:53.640Z,3660
2017-11-22T08:40:55.461Z,3772
2017-11-22T08:41:57.346Z,3876
2017-11-22T08:42:59.231Z,3964
2017-11-22T08:44:01.114Z,3988
2017-11-22T08:45:15.269Z,3940
2017-11-22T08:46:17.157Z,3972
2017-11-22T08:47:19.085Z,4044
2017-11-22T08:48:20.969Z,4124
2017-11-22T08:49:22.791Z,4240
2017-11-22T08:50:24.611Z,4356
2017-11-22T08:51:26.490Z,4372
2017-11-22T08:52:28.389Z,4428
2017-11-22T08:53:30.261Z,4468
2017-11-22T08:54:44.419Z,4592
2017-11-22T08:55:46.304Z,4676
2017-11-22T08:56:48.188Z,4824
2017-11-22T08:57:50.078Z,4936
2017-11-22T08:58:51.896Z,5020
2017-11-22T08:59:53.721Z,5096
2017-11-22T09:00:55.598Z,5136
2017-11-22T09:01:57.487Z,4988
2017-11-22T09:02:59.366Z,4788
2017-11-22T09:04:13.521Z,4688
2017-11-22T09:05:15.406Z,4676
2017-11-22T09:06:17.291Z,4728
2017-11-22T09:07:19.225Z,4880
2017-11-22T09:08:21.066Z,5060
2017-11-22T09:09:22.850Z,5188
2017-11-22T09:10:24.736Z,5256
2017-11-22T09:11:26.618Z,5332
2017-11-22T09:12:28.513Z,5604
2017-11-22T09:13:42.660Z,5908
2017-11-22T09:14:44.545Z,6080
2017-11-22T09:15:46.428Z,6320
2017-11-22T09:16:48.313Z,6436
2017-11-22T09:17:50.140Z,6124
2017-11-22T09:18:51.960Z,5844
2017-11-22T09:19:53.864Z,5700
2017-11-22T09:20:55.736Z,5620
2017-11-22T09:21:57.613Z,5516
2017-11-22T09:23:11.768Z,5472
2017-11-22T09:24:13.653Z,5648
2017-11-22T09:25:15.538Z,5832
2017-11-22T09:26:17.423Z,5816
2017-11-22T09:27:19.247Z,5992
2017-11-22T09:28:21.071Z,6060
2017-11-22T09:29:22.954Z,5992
2017-11-22T09:30:24.837Z,6124
2017-11-22T09:31:26.723Z,6260
2017-11-22T09:32:40.878Z,6488
2017-11-22T09:33:42.763Z,6416
2017-11-22T09:34:44.652Z,6444
2017-11-22T09:35:46.535Z,6644
2017-11-22T09:36:48.360Z,6688
2017-11-22T09:37:50.175Z,6696
2017-11-22T09:38:52.022Z,6580
2017-11-22T09:39:53.906Z,6628
2017-11-22T09:40:55.789Z,6776
2017-11-22T09:42:09.955Z,6808
2017-11-22T09:43:11.839Z,6732
2017-11-22T09:44:13.729Z,6492
2017-11-22T09:45:15.614Z,6288
2017-11-22T09:46:17.434Z,6200
2017-11-22T09:47:19.256Z,6268
2017-11-22T09:48:21.138Z,6424
2017-11-22T09:49:23.027Z,6536
2017-11-22T09:50:24.906Z,6516
2017-11-22T09:51:39.113Z,6452
2017-11-22T09:52:41.000Z,6424
2017-11-22T09:53:42.886Z,6528
2017-11-22T09:54:44.773Z,6752
2017-11-22T09:55:46.596Z,6856
2017-11-22T09:56:48.419Z,7208
2017-11-22T09:57:50.300Z,7216
2017-11-22T09:58:52.196Z,7016
2017-11-22T09:59:54.083Z,6808
2017-11-22T10:01:08.241Z,6572
2017-11-22T10:02:10.133Z,6428
2017-11-22T10:03:12.012Z,6444
2017-11-22T10:04:13.909Z,6584
2017-11-22T10:05:15.731Z,6688
2017-11-22T10:06:17.552Z,6660
2017-11-22T10:07:19.435Z,6608
2017-11-22T10:08:21.281Z,6512
2017-11-22T10:09:23.121Z,6512
2017-11-22T10:10:37.289Z,6636
2017-11-22T10:11:39.179Z,6820
2017-11-22T10:12:41.062Z,6816
2017-11-22T10:13:42.944Z,6588
2017-11-22T10:14:44.898Z,6256
2017-11-22T10:15:46.765Z,6088
2017-11-22T10:16:48.649Z,6016
2017-11-22T10:17:50.533Z,5996
2017-11-22T10:18:52.424Z,6192
2017-11-22T10:20:06.577Z,6460
2017-11-22T10:21:08.464Z,6456
2017-11-22T10:22:10.359Z,6296
2017-11-22T10:23:12.240Z,6084
2017-11-22T10:24:14.092Z,5932
2017-11-22T10:25:15.891Z,5836
2017-11-22T10:26:17.772Z,5856
2017-11-22T10:27:19.973Z,5936
2017-11-22T10:28:21.869Z,5932
2017-11-22T10:29:36.096Z,5860
2017-11-22T10:30:38.328Z,5756
2017-11-22T10:31:40.205Z,5604
2017-11-22T10:32:42.115Z,5512
2017-11-22T10:33:43.954Z,5500
2017-11-22T10:34:45.850Z,5480
2017-11-22T10:35:48.094Z,5456
2017-11-22T10:36:49.993Z,5516
2017-11-22T10:37:51.863Z,5580
2017-11-22T10:39:06.088Z,5576
2017-11-22T10:40:07.975Z,5464
2017-11-22T10:41:09.902Z,5300
2017-11-22T10:42:11.778Z,5208
2017-11-22T10:43:13.608Z,5288
2017-11-22T10:44:15.477Z,5604
2017-11-22T10:45:17.328Z,6028
2017-11-22T10:46:19.210Z,6408
2017-11-22T10:47:21.097Z,6528
2017-11-22T10:48:35.251Z,6260
2017-11-22T10:49:37.142Z,5944
2017-11-22T10:50:39.027Z,5476
2017-11-22T10:51:40.914Z,5064
2017-11-22T10:52:42.742Z,4892
2017-11-22T10:53:44.562Z,4776
2017-11-22T10:54:46.449Z,4644
2017-11-22T10:55:48.335Z,4344
2017-11-22T10:56:50.221Z,4104
2017-11-22T10:58:04.378Z,4132
2017-11-22T10:59:06.268Z,4084
2017-11-22T11:00:08.156Z,3968
2017-11-22T11:01:10.046Z,3892
2017-11-22T11:02:11.870Z,3848
2017-11-22T11:03:13.690Z,3808
2017-11-22T11:04:15.577Z,3932
2017-11-22T11:05:17.458Z,3928
2017-11-22T11:06:19.348Z,3756
2017-11-22T11:07:33.507Z,3392
2017-11-22T11:08:35.400Z,3388
2017-11-22T11:09:37.288Z,3464
2017-11-22T11:10:39.181Z,3432
2017-11-22T11:11:41.003Z,3372
2017-11-22T11:12:42.832Z,3376
2017-11-22T11:13:44.721Z,3360
2017-11-22T11:14:46.611Z,3152
2017-11-22T11:15:48.530Z,2928
2017-11-22T11:17:02.694Z,2912
2017-11-22T11:18:04.596Z,3080
2017-11-22T11:19:06.474Z,3448
2017-11-22T11:20:08.371Z,3992
2017-11-22T11:21:10.191Z,4316
2017-11-22T11:22:12.012Z,4044
2017-11-22T11:23:13.910Z,3536
2017-11-22T11:24:15.788Z,3268
2017-11-22T11:25:17.678Z,3384
2017-11-22T11:26:31.834Z,3680
2017-11-22T11:27:33.722Z,3904
2017-11-22T11:28:35.609Z,4268
2017-11-22T11:29:37.501Z,4372
2017-11-22T11:30:39.326Z,4288
2017-11-22T11:31:41.157Z,4220
2017-11-22T11:32:43.046Z,4132
2017-11-22T11:33:44.941Z,3932
2017-11-22T11:34:46.848Z,3952
2017-11-22T11:36:01.022Z,4136
2017-11-22T11:37:02.918Z,4196
2017-11-22T11:38:04.801Z,4124
2017-11-22T11:39:06.690Z,4396
2017-11-22T11:40:08.527Z,4564
2017-11-22T11:41:10.338Z,4528
2017-11-22T11:42:12.221Z,4452
2017-11-22T11:43:14.107Z,4712
2017-11-22T11:44:16.005Z,4804
2017-11-22T11:45:30.174Z,4688
2017-11-22T11:46:32.062Z,4592
2017-11-22T11:47:33.951Z,5152
2017-11-22T11:48:35.838Z,5528
2017-11-22T11:49:37.660Z,5540
2017-11-22T11:50:39.486Z,5628
2017-11-22T11:51:41.370Z,5464
2017-11-22T11:52:43.252Z,5312
2017-11-22T11:53:45.144Z,5092
2017-11-22T11:54:59.298Z,4768
2017-11-22T11:56:01.190Z,4708
2017-11-22T11:57:03.077Z,4780
2017-11-22T11:58:04.970Z,4728
2017-11-22T11:59:06.796Z,4352
2017-11-22T12:00:08.624Z,4004
2017-11-22T12:01:10.510Z,3896
2017-11-22T12:02:12.397Z,3988
2017-11-22T12:03:14.284Z,4012
2017-11-22T12:04:28.437Z,4084
2017-11-22T12:05:30.326Z,4156
2017-11-22T12:06:32.221Z,4344
2017-11-22T12:07:34.101Z,4436
2017-11-22T12:08:35.928Z,4504
2017-11-22T12:09:37.758Z,4664
2017-11-22T12:10:39.643Z,4820
2017-11-22T12:11:41.528Z,5064
2017-11-22T12:12:43.420Z,5104
2017-11-22T12:13:57.574Z,4788
2017-11-22T12:14:59.464Z,4540
2017-11-22T12:16:01.350Z,4256
2017-11-22T12:17:03.243Z,4416
2017-11-22T12:18:05.072Z,4692
2017-11-22T12:19:06.894Z,4768
2017-11-22T12:20:08.781Z,4964
2017-11-22T12:21:10.667Z,5148
2017-11-22T12:22:12.557Z,5092
2017-11-22T12:23:26.714Z,5192
2017-11-22T12:24:28.605Z,5176
2017-11-22T12:25:30.491Z,4988
2017-11-22T12:26:32.382Z,4820
2017-11-22T12:27:34.206Z,4784
2017-11-22T12:28:36.036Z,4796
2017-11-22T12:29:38.248Z,4940
2017-11-22T12:30:40.148Z,5080
2017-11-22T12:31:42.026Z,5168
2017-11-22T12:32:56.514Z,5412
2017-11-22T12:33:58.494Z,5564
2017-11-22T12:35:00.381Z,5648
2017-11-22T12:36:02.268Z,5940
2017-11-22T12:37:04.159Z,6112
2017-11-22T12:38:06.297Z,6060
2017-11-22T12:39:08.178Z,5944
2017-11-22T12:40:10.379Z,5820
2017-11-22T12:41:12.259Z,5788
2017-11-22T12:42:26.784Z,6100
2017-11-22T12:43:28.669Z,6300
2017-11-22T12:44:30.557Z,6148
2017-11-22T12:45:32.459Z,5828
2017-11-22T12:46:34.305Z,5752
2017-11-22T12:47:36.130Z,5876
2017-11-22T12:48:38.027Z,5900
2017-11-22T12:49:39.910Z,5896
2017-11-22T12:50:42.133Z,6000
2017-11-22T12:51:56.342Z,6248
2017-11-22T12:52:58.235Z,6504
2017-11-22T12:54:00.455Z,6800
2017-11-22T12:55:02.303Z,6964
2017-11-22T12:56:04.142Z,6868
2017-11-22T12:57:05.967Z,6704
2017-11-22T12:58:07.851Z,6644
2017-11-22T12:59:10.058Z,6484
2017-11-22T13:00:11.962Z,6412
2017-11-22T13:01:26.142Z,6388
2017-11-22T13:02:28.027Z,6352
2017-11-22T13:03:29.914Z,6324
2017-11-22T13:04:31.800Z,6320
2017-11-22T13:05:33.627Z,6324
2017-11-22T13:06:35.445Z,6412
2017-11-22T13:07:37.343Z,6428
2017-11-22T13:08:39.219Z,6288
2017-11-22T13:09:41.321Z,6184
2017-11-22T13:10:55.533Z,5964
2017-11-22T13:11:57.440Z,5724
2017-11-22T13:12:59.329Z,5432
2017-11-22T13:14:01.212Z,5220
2017-11-22T13:15:03.041Z,5056
2017-11-22T13:16:04.858Z,5012
2017-11-22T13:17:06.744Z,4976
2017-11-22T13:18:08.626Z,4920
2017-11-22T13:19:10.516Z,4824
2017-11-22T13:20:24.673Z,4708
2017-11-22T13:21:26.561Z,4648
2017-11-22T13:22:28.450Z,4592
2017-11-22T13:23:30.337Z,4500
2017-11-22T13:24:32.164Z,4392
2017-11-22T13:25:33.994Z,4284
2017-11-22T13:26:35.873Z,4160
2017-11-22T13:27:37.758Z,4016
2017-11-22T13:28:39.645Z,3844
2017-11-22T13:29:53.851Z,3656
2017-11-22T13:30:55.739Z,3528
2017-11-22T13:31:57.627Z,3408
2017-11-22T13:32:59.516Z,3316
2017-11-22T13:34:01.341Z,3252
2017-11-22T13:35:03.160Z,3216
2017-11-22T13:36:05.042Z,3220
2017-11-22T13:37:06.932Z,3232
2017-11-22T13:38:08.821Z,3184
2017-11-22T13:39:23.022Z,3108
2017-11-22T13:40:24.920Z,3028
2017-11-22T13:41:26.807Z,2932
2017-11-22T13:42:28.696Z,2832
2017-11-22T13:43:30.517Z,2736
2017-11-22T13:44:32.339Z,2660
2017-11-22T13:45:34.224Z,2592
2017-11-22T13:46:36.110Z,2552
2017-11-22T13:47:38.000Z,2516
2017-11-22T13:48:52.157Z,2508
2017-11-22T13:49:54.043Z,2508
2017-11-22T13:50:55.928Z,2500
2017-11-22T13:51:57.819Z,2456
2017-11-22T13:52:59.640Z,2420
2017-11-22T13:54:01.464Z,2384
2017-11-22T13:55:03.349Z,2360
2017-11-22T13:56:05.232Z,2344
2017-11-22T13:57:07.118Z,2332
2017-11-22T13:58:21.276Z,2300
2017-11-22T13:59:23.163Z,2276
2017-11-22T14:00:25.050Z,2252
2017-11-22T14:01:26.936Z,2224
2017-11-22T14:02:28.758Z,2184
2017-11-22T14:03:30.581Z,2140
2017-11-22T14:04:32.470Z,2092
2017-11-22T14:05:34.359Z,2032
2017-11-22T14:06:36.245Z,1944
2017-11-22T14:07:50.403Z,1860
2017-11-22T14:08:52.289Z,1816
2017-11-22T14:09:54.173Z,1792
2017-11-22T14:10:56.056Z,1768
2017-11-22T14:11:57.881Z,1732
2017-11-22T14:12:59.700Z,1700
2017-11-22T14:14:01.583Z,1664
2017-11-22T14:15:03.467Z,1628
2017-11-22T14:16:05.350Z,1592
2017-11-22T14:17:19.505Z,1556
2017-11-22T14:18:21.395Z,1524
2017-11-22T14:19:23.279Z,1484
2017-11-22T14:20:25.168Z,1448
2017-11-22T14:21:26.991Z,1412
2017-11-22T14:22:28.812Z,1392
2017-11-22T14:23:30.694Z,1372
2017-11-22T14:24:32.578Z,1360
2017-11-22T14:25:34.462Z,1348
2017-11-22T14:26:48.619Z,1332
2017-11-22T14:27:50.511Z,1304
2017-11-22T14:28:52.396Z,1276
2017-11-22T14:29:54.282Z,1244
2017-11-22T14:30:56.108Z,1208
2017-11-22T14:31:57.928Z,1168
2017-11-22T14:32:59.810Z,1124
2017-11-22T14:34:01.696Z,1080
2017-11-22T14:35:03.581Z,1028
2017-11-22T14:36:17.736Z,968
2017-11-22T14:37:19.620Z,920
2017-11-22T14:38:21.505Z,872
2017-11-22T14:39:23.399Z,824
2017-11-22T14:40:25.209Z,776
2017-11-22T14:41:27.086Z,728